Flight Track Log - Related Links

Times and Time Zones

All times are in EDT time to prevent confusion due to time zone crossing. See the CES5800 flight status page for this flight to view local times or setup timezone preferences in your user account.

Time Position Orientation Groundspeed Altitude Reporting Facility
EDT Latitude Longitude Course Direction KTS MPH feet Rate Location/Type
Fri 10:26:00 AM 31.8572 109.2828 223° Southwest  Level Estimated
Fri 10:27:00 AM 31.7737 109.1971 221° Southwest  Level Estimated
Fri 10:28:00 AM 31.6902 109.1114 221° Southwest  Level Estimated
Fri 10:29:00 AM 31.6066 109.0259 221° Southwest  Level Estimated
Fri 10:30:00 AM 31.5229 108.9406 221° Southwest  Level Estimated
Fri 10:31:00 AM 31.4391 108.8554 221° Southwest  Level Estimated
Fri 10:32:00 AM 31.3554 108.7704 221° Southwest  Level Estimated
Fri 10:33:00 AM 31.2715 108.6855 221° Southwest  Level Estimated
Fri 10:34:00 AM 31.1876 108.6008 221° Southwest  Level Estimated
Fri 10:35:00 AM 31.1037 108.5163 221° Southwest  Level Estimated
Fri 10:36:00 AM 31.0197 108.4318 221° Southwest  Level Estimated
Fri 10:37:00 AM 30.9356 108.3476 221° Southwest  Level Estimated
Fri 10:38:00 AM 30.8515 108.2635 221° Southwest  Level Estimated
Fri 10:39:00 AM 30.7673 108.1795 221° Southwest  Level Estimated
Fri 10:40:00 AM 30.6831 108.0956 221° Southwest  Level Estimated
Fri 10:41:00 AM 30.5989 108.0120 221° Southwest  Level Estimated
Fri 10:42:00 AM 30.5145 107.9284 220° Southwest  Level Estimated
Fri 10:43:00 AM 30.4301 107.8450 220° Southwest  Level Estimated
Fri 10:44:00 AM 30.3457 107.7618 220° Southwest  Level Estimated
Fri 10:45:00 AM 30.2612 107.6787 220° Southwest  Level Estimated
Fri 10:46:00 AM 30.1767 107.5957 220° Southwest  Level Estimated
Fri 10:47:00 AM 30.0921 107.5129 220° Southwest  Level Estimated
Fri 10:48:00 AM 30.0075 107.4302 220° Southwest  Level Estimated
Fri 10:49:00 AM 29.9228 107.3477 220° Southwest  Level Estimated
Fri 10:50:00 AM 29.8380 107.2653 220° Southwest  Level Estimated
Fri 10:51:00 AM 29.7532 107.1830 220° Southwest  Level Estimated
Fri 10:52:00 AM 29.6684 107.1009 220° Southwest  Level Estimated
Fri 10:53:00 AM 29.5835 107.0189 220° Southwest  Level Estimated
Fri 10:54:00 AM 29.4985 106.9371 220° Southwest  Level Estimated
Fri 10:55:00 AM 29.4135 106.8554 220° Southwest  Level Estimated
Fri 10:56:00 AM 29.3284 106.7738 220° Southwest  Level Estimated
Fri 10:57:00 AM 29.2433 106.6924 220° Southwest  Level Estimated
Fri 10:58:00 AM 29.1582 106.6111 220° Southwest  Level Estimated
Fri 10:59:00 AM 29.0730 106.5299 220° Southwest  Level Estimated
Fri 11:00:00 AM 28.9877 106.4489 220° Southwest  Level Estimated
Fri 11:01:00 AM 28.9025 106.3680 220° Southwest  Level Estimated
Fri 11:02:00 AM 28.8171 106.2873 220° Southwest  Level Estimated
Fri 11:03:00 AM 28.7317 106.2066 220° Southwest  Level Estimated
Fri 11:04:00 AM 28.6463 106.1261 220° Southwest  Level Estimated
Fri 11:05:00 AM 28.5608 106.0458 220° Southwest  Level Estimated
Fri 11:06:00 AM 28.4753 105.9655 220° Southwest  Level Estimated
Fri 11:07:00 AM 28.3897 105.8854 219° Southwest  Level Estimated
Fri 11:08:00 AM 28.3041 105.8055 219° Southwest  Level Estimated
Fri 11:09:00 AM 28.2184 105.7256 219° Southwest  Level Estimated
Fri 11:10:00 AM 28.1327 105.6459 219° Southwest  Level Estimated
Fri 11:11:00 AM 28.0469 105.5663 219° Southwest  Level Estimated
Fri 11:12:00 AM 27.9611 105.4868 219° Southwest  Level Estimated
Fri 11:13:00 AM 27.8752 105.4075 219° Southwest  Level Estimated
Fri 11:14:00 AM 27.7893 105.3283 219° Southwest  Level Estimated
Fri 11:15:00 AM 27.7034 105.2492 219° Southwest  Level Estimated
Fri 11:16:00 AM 27.6174 105.1702 219° Southwest  Level Estimated
Fri 11:17:00 AM 27.5313 105.0914 219° Southwest  Level Estimated
Fri 11:18:00 AM 27.4453 105.0127 219° Southwest  Level Estimated
Fri 11:19:00 AM 27.3591 104.9341 219° Southwest  Level Estimated
Fri 11:20:00 AM 27.2730 104.8556 219° Southwest  Level Estimated
Fri 11:21:00 AM 27.1868 104.7773 219° Southwest  Level Estimated
Fri 11:22:00 AM 27.1005 104.6990 219° Southwest  Level Estimated
Fri 11:23:00 AM 27.0142 104.6209 219° Southwest  Level Estimated
Fri 11:24:00 AM 26.9279 104.5429 219° Southwest  Level Estimated
Fri 11:25:00 AM 26.8415 104.4651 219° Southwest  Level Estimated
Fri 11:26:00 AM 26.7550 104.3873 219° Southwest  Level Estimated
Fri 11:27:00 AM 26.6686 104.3097 219° Southwest  Level Estimated
Fri 11:28:00 AM 26.5821 104.2322 219° Southwest  Level Estimated
Fri 11:29:00 AM 26.4955 104.1548 219° Southwest  Level Estimated
Fri 11:30:00 AM 26.4089 104.0775 219° Southwest  Level Estimated
Fri 11:31:00 AM 26.3223 104.0003 219° Southwest  Level Estimated
Fri 11:32:00 AM 26.2356 103.9233 219° Southwest  Level Estimated
Fri 11:33:00 AM 26.1489 103.8464 219° Southwest  Level Estimated
Fri 11:34:00 AM 26.0621 103.7695 219° Southwest  Level Estimated
Fri 11:35:00 AM 25.9753 103.6928 218° Southwest  Level Estimated
Fri 11:36:00 AM 25.8885 103.6162 218° Southwest  Level Estimated
Fri 11:37:00 AM 25.8016 103.5398 218° Southwest  Level Estimated
Fri 11:38:00 AM 25.7147 103.4634 218° Southwest  Level Estimated
Fri 11:39:00 AM 25.6277 103.3871 218° Southwest  Level Estimated
Fri 11:40:00 AM 25.5407 103.3110 218° Southwest  Level Estimated
Fri 11:41:00 AM 25.4537 103.2350 218° Southwest  Level Estimated
Fri 11:42:00 AM 25.3666 103.1590 218° Southwest  Level Estimated
Fri 11:43:00 AM 25.2795 103.0832 218° Southwest  Level Estimated
Fri 11:44:00 AM 25.1923 103.0075 218° Southwest  Level Estimated
Fri 11:45:00 AM 25.1051 102.9319 218° Southwest  Level Estimated
Fri 11:46:00 AM 25.1019 102.9292 218° Southwest  Level Estimated
Fri 11:47:00 AM 25.1019 102.9292 326° Northwest  Level Estimated
Fri 11:48:00 AM 25.1019 102.9292 326° Northwest  Level Estimated
Fri 11:49:00 AM 25.1019 102.9292 326° Northwest  Level Estimated
Fri 11:50:00 AM 25.1019 102.9292 326° Northwest  Level Estimated
Fri 11:51:00 AM 25.1019 102.9292 326° Northwest  Level Estimated
Fri 11:52:00 AM 25.1019 102.9292 326° Northwest  Level Estimated
Fri 11:53:00 AM 25.1019 102.9292 326° Northwest  Level Estimated
Fri 11:54:00 AM 25.1019 102.9292 326° Northwest  Level Estimated
Fri 11:55:00 AM 25.1019 102.9292 326° Northwest  Level Estimated
Fri 11:56:00 AM 25.1019 102.9292 326° Northwest  Level Estimated
Fri 11:57:00 AM 25.1019 102.9292 326° Northwest  Level Estimated
Fri 11:58:00 AM 25.1019 102.9292 326° Northwest  Level Estimated
Fri 11:59:00 AM 25.1019 102.9292 326° Northwest  Level Estimated

Login

Don't have an account? Register now (free) for customized features, flight alerts, and more!